sensor_id;sensor_type;location;lat;lon;timestamp;pressure;altitude;pressure_sealevel;temperature;humidity
14204;BME280;7185;51.854;6.622;2023-02-17T00:00:47;101670.75;;;11.08;100.00
14204;BME280;7185;51.854;6.622;2023-02-17T00:03:18;101671.69;;;11.02;100.00
14204;BME280;7185;51.854;6.622;2023-02-17T00:05:50;101661.13;;;11.14;100.00
14204;BME280;7185;51.854;6.622;2023-02-17T00:08:23;101669.00;;;11.07;100.00
14204;BME280;7185;51.854;6.622;2023-02-17T00:10:56;101662.91;;;10.97;100.00
14204;BME280;7185;51.854;6.622;2023-02-17T00:13:28;101655.94;;;10.93;100.00
14204;BME280;7185;51.854;6.622;2023-02-17T00:16:05;101656.78;;;11.04;100.00
14204;BME280;7185;51.854;6.622;2023-02-17T00:18:37;101654.13;;;11.13;100.00
14204;BME280;7185;51.854;6.622;2023-02-17T00:21:16;101648.00;;;11.11;100.00
14204;BME280;7185;51.854;6.622;2023-02-17T00:23:49;101656.78;;;11.03;100.00
14204;BME280;7185;51.854;6.622;2023-02-17T00:26:21;101653.28;;;11.10;100.00
14204;BME280;7185;51.854;6.622;2023-02-17T00:28:52;101662.91;;;11.06;100.00
14204;BME280;7185;51.854;6.622;2023-02-17T00:31:24;101660.25;;;11.12;100.00
14204;BME280;7185;51.854;6.622;2023-02-17T00:33:56;101651.56;;;10.98;100.00
14204;BME280;7185;51.854;6.622;2023-02-17T00:36:27;101644.53;;;11.05;100.00
14204;BME280;7185;51.854;6.622;2023-02-17T00:39:00;101638.47;;;10.95;100.00
14204;BME280;7185;51.854;6.622;2023-02-17T00:41:32;101642.78;;;11.05;100.00
14204;BME280;7185;51.854;6.622;2023-02-17T00:44:04;101643.63;;;11.16;100.00
14204;BME280;7185;51.854;6.622;2023-02-17T00:46:36;101635.75;;;11.15;100.00
14204;BME280;7185;51.854;6.622;2023-02-17T00:49:07;101638.47;;;10.95;100.00
14204;BME280;7185;51.854;6.622;2023-02-17T00:51:40;101632.28;;;11.10;100.00
14204;BME280;7185;51.854;6.622;2023-02-17T00:54:13;101636.59;;;11.22;100.00
14204;BME280;7185;51.854;6.622;2023-02-17T00:56:45;101647.06;;;11.28;100.00
14204;BME280;7185;51.854;6.622;2023-02-17T00:59:16;101640.97;;;11.24;100.00
14204;BME280;7185;51.854;6.622;2023-02-17T01:01:48;101635.69;;;11.30;100.00
14204;BME280;7185;51.854;6.622;2023-02-17T01:04:20;101634.88;;;11.11;100.00
14204;BME280;7185;51.854;6.622;2023-02-17T01:06:51;101647.13;;;11.12;100.00
14204;BME280;7185;51.854;6.622;2023-02-17T01:09:24;101641.88;;;11.08;100.00
14204;BME280;7185;51.854;6.622;2023-02-17T01:11:56;101636.63;;;11.14;100.00
14204;BME280;7185;51.854;6.622;2023-02-17T01:14:27;101630.53;;;11.09;100.00
14204;BME280;7185;51.854;6.622;2023-02-17T01:16:59;101626.13;;;11.12;100.00
14204;BME280;7185;51.854;6.622;2023-02-17T01:19:30;101615.63;;;11.12;100.00
14204;BME280;7185;51.854;6.622;2023-02-17T01:22:02;101606.91;;;11.04;100.00
14204;BME280;7185;51.854;6.622;2023-02-17T01:24:35;101599.91;;;11.11;100.00
14204;BME280;7185;51.854;6.622;2023-02-17T01:27:07;101600.78;;;11.05;100.00
14204;BME280;7185;51.854;6.622;2023-02-17T01:29:38;101590.34;;;10.94;100.00
14204;BME280;7185;51.854;6.622;2023-02-17T01:32:10;101590.22;;;11.21;100.00
14204;BME280;7185;51.854;6.622;2023-02-17T01:34:42;101587.59;;;11.24;100.00
14204;BME280;7185;51.854;6.622;2023-02-17T01:37:14;101594.56;;;11.28;100.00
14204;BME280;7185;51.854;6.622;2023-02-17T01:39:47;101594.63;;;11.15;100.00
14204;BME280;7185;51.854;6.622;2023-02-17T01:42:19;101595.44;;;11.28;100.00
14204;BME280;7185;51.854;6.622;2023-02-17T01:48:05;101598.00;;;11.38;100.00
14204;BME280;7185;51.854;6.622;2023-02-17T01:50:40;101599.78;;;11.37;100.00
14204;BME280;7185;51.854;6.622;2023-02-17T01:53:17;101596.38;;;11.18;100.00
14204;BME280;7185;51.854;6.622;2023-02-17T01:55:52;101602.47;;;11.22;100.00
14204;BME280;7185;51.854;6.622;2023-02-17T01:58:26;101602.44;;;11.31;100.00
14204;BME280;7185;51.854;6.622;2023-02-17T02:01:00;101594.50;;;11.36;100.00
14204;BME280;7185;51.854;6.622;2023-02-17T02:03:35;101589.31;;;11.31;100.00
14204;BME280;7185;51.854;6.622;2023-02-17T02:06:10;101589.28;;;11.34;100.00
14204;BME280;7185;51.854;6.622;2023-02-17T02:08:48;101581.41;;;11.32;100.00
14204;BME280;7185;51.854;6.622;2023-02-17T02:11:24;101585.78;;;11.38;100.00
14204;BME280;7185;51.854;6.622;2023-02-17T02:13:57;101575.31;;;11.26;100.00
14204;BME280;7185;51.854;6.622;2023-02-17T02:16:40;101576.97;;;11.42;100.00
14204;BME280;7185;51.854;6.622;2023-02-17T02:22:35;101555.94;;;11.45;100.00
14204;BME280;7185;51.854;6.622;2023-02-17T02:25:13;101545.44;;;11.45;100.00
14204;BME280;7185;51.854;6.622;2023-02-17T02:28:05;101536.75;;;11.34;100.00
14204;BME280;7185;51.854;6.622;2023-02-17T02:30:49;101546.47;;;11.21;100.00
14204;BME280;7185;51.854;6.622;2023-02-17T02:33:40;101545.59;;;11.22;100.00
14204;BME280;7185;51.854;6.622;2023-02-17T02:36:19;101551.63;;;11.40;100.00
14204;BME280;7185;51.854;6.622;2023-02-17T02:39:00;101549.94;;;11.25;100.00
14204;BME280;7185;51.854;6.622;2023-02-17T02:41:35;101536.75;;;11.34;100.00
14204;BME280;7185;51.854;6.622;2023-02-17T02:44:10;101542.84;;;11.42;100.00
14204;BME280;7185;51.854;6.622;2023-02-17T02:46:43;101548.97;;;11.43;100.00
14204;BME280;7185;51.854;6.622;2023-02-17T02:49:16;101547.22;;;11.40;100.00
14204;BME280;7185;51.854;6.622;2023-02-17T02:51:53;101538.47;;;11.41;100.00
14204;BME280;7185;51.854;6.622;2023-02-17T02:54:37;101543.69;;;11.43;100.00
14204;BME280;7185;51.854;6.622;2023-02-17T02:57:32;101527.06;;;11.44;100.00
14204;BME280;7185;51.854;6.622;2023-02-17T03:00:15;101534.06;;;11.48;100.00
14204;BME280;7185;51.854;6.622;2023-02-17T03:02:54;101538.44;;;11.47;100.00
14204;BME280;7185;51.854;6.622;2023-02-17T03:05:32;101531.50;;;11.39;100.00
14204;BME280;7185;51.854;6.622;2023-02-17T03:08:10;101531.34;;;11.59;100.00
14204;BME280;7185;51.854;6.622;2023-02-17T03:10:45;101530.50;;;11.54;100.00
14204;BME280;7185;51.854;6.622;2023-02-17T03:13:18;101534.97;;;11.39;100.00
14204;BME280;7185;51.854;6.622;2023-02-17T03:15:50;101524.41;;;11.48;100.00
14204;BME280;7185;51.854;6.622;2023-02-17T03:18:21;101528.72;;;11.57;100.00
14204;BME280;7185;51.854;6.622;2023-02-17T03:20:56;101523.50;;;11.56;100.00
14204;BME280;7185;51.854;6.622;2023-02-17T03:23:31;101536.63;;;11.53;100.00
14204;BME280;7185;51.854;6.622;2023-02-17T03:26:03;101522.66;;;11.47;100.00
14204;BME280;7185;51.854;6.622;2023-02-17T03:28:35;101529.63;;;11.55;100.00
14204;BME280;7185;51.854;6.622;2023-02-17T03:31:06;101526.19;;;11.46;100.00
14204;BME280;7185;51.854;6.622;2023-02-17T03:33:38;101532.28;;;11.50;100.00
14204;BME280;7185;51.854;6.622;2023-02-17T03:36:11;101524.34;;;11.58;100.00
14204;BME280;7185;51.854;6.622;2023-02-17T03:38:43;101534.91;;;11.52;100.00
14204;BME280;7185;51.854;6.622;2023-02-17T03:41:14;101529.69;;;11.44;100.00
14204;BME280;7185;51.854;6.622;2023-02-17T03:43:46;101531.41;;;11.50;100.00
14204;BME280;7185;51.854;6.622;2023-02-17T03:46:18;101539.34;;;11.40;100.00
14204;BME280;7185;51.854;6.622;2023-02-17T03:48:49;101535.00;;;11.38;100.00
14204;BME280;7185;51.854;6.622;2023-02-17T03:51:23;101519.25;;;11.36;100.00
14204;BME280;7185;51.854;6.622;2023-02-17T03:53:57;101511.41;;;11.35;100.00
14204;BME280;7185;51.854;6.622;2023-02-17T03:56:29;101520.06;;;11.43;100.00
14204;BME280;7185;51.854;6.622;2023-02-17T03:59:00;101513.97;;;11.39;100.00
14204;BME280;7185;51.854;6.622;2023-02-17T04:01:32;101516.59;;;11.42;100.00
14204;BME280;7185;51.854;6.622;2023-02-17T04:04:04;101505.25;;;11.36;100.00
14204;BME280;7185;51.854;6.622;2023-02-17T04:06:36;101497.34;;;11.40;100.00
14204;BME280;7185;51.854;6.622;2023-02-17T04:09:08;101492.06;;;11.43;100.00
14204;BME280;7185;51.854;6.622;2023-02-17T04:11:40;101488.66;;;11.34;100.00
14204;BME280;7185;51.854;6.622;2023-02-17T04:14:11;101497.38;;;11.36;100.00
14204;BME280;7185;51.854;6.622;2023-02-17T04:16:43;101493.81;;;11.43;100.00
14204;BME280;7185;51.854;6.622;2023-02-17T04:19:14;101499.94;;;11.43;100.00
14204;BME280;7185;51.854;6.622;2023-02-17T04:21:47;101489.47;;;11.40;100.00
14204;BME280;7185;51.854;6.622;2023-02-17T04:24:19;101490.28;;;11.47;100.00
14204;BME280;7185;51.854;6.622;2023-02-17T04:26:50;101504.38;;;11.35;100.00
14204;BME280;7185;51.854;6.622;2023-02-17T04:29:22;101494.69;;;11.45;100.00
14204;BME280;7185;51.854;6.622;2023-02-17T04:31:53;101509.66;;;11.34;100.00
14204;BME280;7185;51.854;6.622;2023-02-17T04:34:25;101509.47;;;11.58;100.00
14204;BME280;7185;51.854;6.622;2023-02-17T04:36:58;101513.84;;;11.58;100.00
14204;BME280;7185;51.854;6.622;2023-02-17T04:39:29;101512.00;;;11.69;100.00
14204;BME280;7185;51.854;6.622;2023-02-17T04:42:01;101513.84;;;11.58;100.00
14204;BME280;7185;51.854;6.622;2023-02-17T04:44:33;101510.34;;;11.59;100.00
14204;BME280;7185;51.854;6.622;2023-02-17T04:47:04;101506.00;;;11.50;100.00
14204;BME280;7185;51.854;6.622;2023-02-17T04:49:36;101512.16;;;11.47;100.00
14204;BME280;7185;51.854;6.622;2023-02-17T04:52:09;101510.34;;;11.56;100.00
14204;BME280;7185;51.854;6.622;2023-02-17T04:54:40;101519.06;;;11.64;100.00
14204;BME280;7185;51.854;6.622;2023-02-17T04:57:12;101515.66;;;11.50;100.00
14204;BME280;7185;51.854;6.622;2023-02-17T04:59:43;101511.25;;;11.50;100.00
14204;BME280;7185;51.854;6.622;2023-02-17T05:02:15;101515.63;;;11.53;100.00
14204;BME280;7185;51.854;6.622;2023-02-17T05:04:47;101498.97;;;11.57;100.00
14204;BME280;7185;51.854;6.622;2023-02-17T05:07:20;101499.03;;;11.51;100.00
14204;BME280;7185;51.854;6.622;2023-02-17T05:09:51;101495.44;;;11.59;100.00
14204;BME280;7185;51.854;6.622;2023-02-17T05:12:23;101492.84;;;11.58;100.00
14204;BME280;7185;51.854;6.622;2023-02-17T05:14:55;101477.09;;;11.55;100.00
14204;BME280;7185;51.854;6.622;2023-02-17T05:17:26;101470.94;;;11.57;100.00
14204;BME280;7185;51.854;6.622;2023-02-17T05:19:58;101468.34;;;11.53;100.00
14204;BME280;7185;51.854;6.622;2023-02-17T05:22:31;101467.63;;;11.35;100.00
14204;BME280;7185;51.854;6.622;2023-02-17T05:25:02;101461.31;;;11.56;100.00
14204;BME280;7185;51.854;6.622;2023-02-17T05:27:34;101470.13;;;11.51;100.00
14204;BME280;7185;51.854;6.622;2023-02-17T05:30:06;101477.16;;;11.48;100.00
14204;BME280;7185;51.854;6.622;2023-02-17T05:32:38;101456.19;;;11.39;100.00
14204;BME280;7185;51.854;6.622;2023-02-17T05:35:09;101454.34;;;11.54;100.00
14204;BME280;7185;51.854;6.622;2023-02-17T05:37:42;101464.88;;;11.51;100.00
14204;BME280;7185;51.854;6.622;2023-02-17T05:40:14;101478.81;;;11.59;100.00
14204;BME280;7185;51.854;6.622;2023-02-17T05:42:45;101477.16;;;11.48;100.00
14204;BME280;7185;51.854;6.622;2023-02-17T05:45:17;101472.72;;;11.57;100.00
14204;BME280;7185;51.854;6.622;2023-02-17T05:47:49;101467.41;;;11.60;100.00
14204;BME280;7185;51.854;6.622;2023-02-17T05:50:20;101460.34;;;11.70;100.00
14204;BME280;7185;51.854;6.622;2023-02-17T05:52:53;101461.28;;;11.61;100.00
14204;BME280;7185;51.854;6.622;2023-02-17T05:55:25;101459.53;;;11.60;100.00
14204;BME280;7185;51.854;6.622;2023-02-17T05:57:56;101463.81;;;11.72;100.00
14204;BME280;7185;51.854;6.622;2023-02-17T06:00:28;101465.63;;;11.63;100.00
14204;BME280;7185;51.854;6.622;2023-02-17T06:03:00;101461.31;;;11.58;100.00
14204;BME280;7185;51.854;6.622;2023-02-17T06:05:31;101466.56;;;11.58;100.00
14204;BME280;7185;51.854;6.622;2023-02-17T06:08:05;101468.34;;;11.53;100.00
14204;BME280;7185;51.854;6.622;2023-02-17T06:10:36;101464.88;;;11.51;100.00
14204;BME280;7185;51.854;6.622;2023-02-17T06:13:08;101469.25;;;11.53;100.00
14204;BME280;7185;51.854;6.622;2023-02-17T06:15:40;101485.13;;;11.36;100.00
14204;BME280;7185;51.854;6.622;2023-02-17T06:18:11;101476.31;;;11.40;100.00
14204;BME280;7185;51.854;6.622;2023-02-17T06:20:43;101472.81;;;11.41;100.00
14204;BME280;7185;51.854;6.622;2023-02-17T06:23:16;101445.78;;;11.30;100.00
14204;BME280;7185;51.854;6.622;2023-02-17T06:25:48;101452.91;;;11.15;100.00
14204;BME280;7185;51.854;6.622;2023-02-17T06:28:20;101473.13;;;11.01;100.00
14204;BME280;7185;51.854;6.622;2023-02-17T06:30:52;101475.69;;;11.07;100.00
14204;BME280;7185;51.854;6.622;2023-02-17T06:33:24;101467.78;;;11.10;100.00
14204;BME280;7185;51.854;6.622;2023-02-17T06:35:55;101465.16;;;11.10;100.00
14204;BME280;7185;51.854;6.622;2023-02-17T06:38:28;101442.41;;;11.15;100.00
14204;BME280;7185;51.854;6.622;2023-02-17T06:41:00;101448.56;;;11.08;100.00
14204;BME280;7185;51.854;6.622;2023-02-17T06:43:32;101447.75;;;10.97;100.00
14204;BME280;7185;51.854;6.622;2023-02-17T06:46:03;101470.34;;;11.23;100.00
14204;BME280;7185;51.854;6.622;2023-02-17T06:48:35;101461.66;;;11.14;100.00
14204;BME280;7185;51.854;6.622;2023-02-17T06:51:07;101469.50;;;11.19;100.00
14204;BME280;7185;51.854;6.622;2023-02-17T06:53:40;101474.72;;;11.22;100.00
14204;BME280;7185;51.854;6.622;2023-02-17T06:56:12;101477.44;;;11.05;100.00
14204;BME280;7185;51.854;6.622;2023-02-17T06:58:43;101465.25;;;11.01;100.00
14204;BME280;7185;51.854;6.622;2023-02-17T07:01:16;101466.91;;;11.11;100.00
14204;BME280;7185;51.854;6.622;2023-02-17T07:03:48;101465.09;;;11.20;100.00
14204;BME280;7185;51.854;6.622;2023-02-17T07:06:20;101462.53;;;11.12;100.00
14204;BME280;7185;51.854;6.622;2023-02-17T07:08:54;101461.59;;;11.18;100.00
14204;BME280;7185;51.854;6.622;2023-02-17T07:11:25;101454.56;;;11.24;100.00
14204;BME280;7185;51.854;6.622;2023-02-17T07:14:00;101461.56;;;11.27;100.00
14204;BME280;7185;51.854;6.622;2023-02-17T07:16:32;101452.78;;;11.32;100.00
14204;BME280;7185;51.854;6.622;2023-02-17T07:19:04;101460.69;;;11.28;100.00
14204;BME280;7185;51.854;6.622;2023-02-17T07:21:35;101460.66;;;11.32;100.00
14204;BME280;7185;51.854;6.622;2023-02-17T07:24:09;101461.53;;;11.30;100.00
14204;BME280;7185;51.854;6.622;2023-02-17T07:26:41;101456.19;;;11.42;100.00
14204;BME280;7185;51.854;6.622;2023-02-17T07:29:15;101446.56;;;11.44;100.00
14204;BME280;7185;51.854;6.622;2023-02-17T07:31:46;101440.41;;;11.45;100.00
14204;BME280;7185;51.854;6.622;2023-02-17T07:34:18;101441.31;;;11.44;100.00
14204;BME280;7185;51.854;6.622;2023-02-17T07:36:50;101441.25;;;11.49;100.00
14204;BME280;7185;51.854;6.622;2023-02-17T07:39:24;101436.94;;;11.43;100.00
14204;BME280;7185;51.854;6.622;2023-02-17T07:41:58;101433.47;;;11.38;100.00
14204;BME280;7185;51.854;6.622;2023-02-17T07:44:31;101448.19;;;11.55;100.00
14204;BME280;7185;51.854;6.622;2023-02-17T07:47:03;101455.25;;;11.50;100.00
14204;BME280;7185;51.854;6.622;2023-02-17T07:49:35;101450.88;;;11.52;100.00
14204;BME280;7185;51.854;6.622;2023-02-17T07:52:06;101444.84;;;11.39;100.00
14204;BME280;7185;51.854;6.622;2023-02-17T07:54:40;101443.81;;;11.57;100.00
14204;BME280;7185;51.854;6.622;2023-02-17T07:57:11;101438.56;;;11.57;100.00
14204;BME280;7185;51.854;6.622;2023-02-17T07:59:45;101433.31;;;11.54;100.00
14204;BME280;7185;51.854;6.622;2023-02-17T08:02:17;101435.00;;;11.64;100.00
14204;BME280;7185;51.854;6.622;2023-02-17T08:04:50;101440.28;;;11.59;100.00
14204;BME280;7185;51.854;6.622;2023-02-17T08:07:21;101441.88;;;11.74;100.00
14204;BME280;7185;51.854;6.622;2023-02-17T08:09:55;101441.91;;;11.76;100.00
14204;BME280;7185;51.854;6.622;2023-02-17T08:12:44;101441.81;;;11.80;100.00
14204;BME280;7185;51.854;6.622;2023-02-17T08:15:35;101440.22;;;11.67;100.00
14204;BME280;7185;51.854;6.622;2023-02-17T08:18:06;101445.44;;;11.70;100.00
14204;BME280;7185;51.854;6.622;2023-02-17T08:20:38;101448.88;;;11.75;100.00
14204;BME280;7185;51.854;6.622;2023-02-17T08:23:10;101454.97;;;11.82;100.00
14204;BME280;7185;51.854;6.622;2023-02-17T08:25:43;101445.22;;;11.92;100.00
14204;BME280;7185;51.854;6.622;2023-02-17T08:28:15;101448.75;;;11.91;100.00
14204;BME280;7185;51.854;6.622;2023-02-17T08:30:47;101447.06;;;11.84;100.00
14204;BME280;7185;51.854;6.622;2023-02-17T08:33:18;101439.16;;;11.87;100.00
14204;BME280;7185;51.854;6.622;2023-02-17T08:35:50;101430.47;;;11.78;100.00
14204;BME280;7185;51.854;6.622;2023-02-17T08:38:22;101430.28;;;11.99;100.00
14204;BME280;7185;51.854;6.622;2023-02-17T08:41:00;101448.75;;;11.88;100.00
14204;BME280;7185;51.854;6.622;2023-02-17T08:43:32;101442.56;;;12.01;100.00
14204;BME280;7185;51.854;6.622;2023-02-17T08:46:06;101446.06;;;12.00;100.00
14204;BME280;7185;51.854;6.622;2023-02-17T08:48:37;101439.84;;;12.07;100.00
14204;BME280;7185;51.854;6.622;2023-02-17T08:51:11;101424.19;;;11.97;100.00
14204;BME280;7185;51.854;6.622;2023-02-17T08:53:44;101431.97;;;12.07;100.00
14204;BME280;7185;51.854;6.622;2023-02-17T08:56:17;101441.53;;;12.15;100.00
14204;BME280;7185;51.854;6.622;2023-02-17T08:58:49;101444.97;;;12.20;100.00
14204;BME280;7185;51.854;6.622;2023-02-17T09:01:21;101461.53;;;12.26;100.00
14204;BME280;7185;51.854;6.622;2023-02-17T09:03:54;101466.84;;;12.20;100.00
14204;BME280;7185;51.854;6.622;2023-02-17T09:06:32;101466.81;;;12.25;100.00
14204;BME280;7185;51.854;6.622;2023-02-17T09:09:05;101453.66;;;12.25;100.00
14204;BME280;7185;51.854;6.622;2023-02-17T09:11:39;101453.66;;;12.28;100.00
14204;BME280;7185;51.854;6.622;2023-02-17T09:14:11;101469.34;;;12.34;100.00
14204;BME280;7185;51.854;6.622;2023-02-17T09:16:43;101472.94;;;12.24;100.00
14204;BME280;7185;51.854;6.622;2023-02-17T09:19:15;101485.97;;;12.35;100.00
14204;BME280;7185;51.854;6.622;2023-02-17T09:21:47;101490.31;;;12.40;100.00
14204;BME280;7185;51.854;6.622;2023-02-17T09:24:19;101486.03;;;12.30;100.00
14204;BME280;7185;51.854;6.622;2023-02-17T09:26:53;101491.28;;;12.30;100.00
14204;BME280;7185;51.854;6.622;2023-02-17T09:29:26;101497.41;;;12.32;100.00
14204;BME280;7185;51.854;6.622;2023-02-17T09:31:57;101492.13;;;12.35;100.00
14204;BME280;7185;51.854;6.622;2023-02-17T09:34:29;101498.94;;;12.52;100.00
14204;BME280;7185;51.854;6.622;2023-02-17T09:37:01;101505.00;;;12.58;100.00
14204;BME280;7185;51.854;6.622;2023-02-17T09:39:33;101507.75;;;12.51;100.00
14204;BME280;7185;51.854;6.622;2023-02-17T09:42:15;101512.94;;;12.54;100.00
14204;BME280;7185;51.854;6.622;2023-02-17T09:44:50;101499.84;;;12.49;100.00
14204;BME280;7185;51.854;6.622;2023-02-17T09:47:28;101511.97;;;12.64;100.00
14204;BME280;7185;51.854;6.622;2023-02-17T09:50:06;101511.13;;;12.59;100.00
14204;BME280;7185;51.854;6.622;2023-02-17T09:52:40;101518.19;;;12.57;100.00
14204;BME280;7185;51.854;6.622;2023-02-17T09:55:17;101528.63;;;12.62;100.00
14204;BME280;7185;51.854;6.622;2023-02-17T09:57:55;101525.03;;;12.70;100.00
14204;BME280;7185;51.854;6.622;2023-02-17T10:00:32;101535.63;;;12.64;100.00
14204;BME280;7185;51.854;6.622;2023-02-17T10:03:09;101505.78;;;12.65;100.00
14204;BME280;7185;51.854;6.622;2023-02-17T10:05:47;101499.41;;;12.85;100.00
14204;BME280;7185;51.854;6.622;2023-02-17T10:08:25;101487.25;;;12.74;100.00
14204;BME280;7185;51.854;6.622;2023-02-17T10:11:01;101475.81;;;12.79;100.00
14204;BME280;7185;51.854;6.622;2023-02-17T10:13:36;101458.06;;;12.93;100.00
14204;BME280;7185;51.854;6.622;2023-02-17T10:16:16;101465.69;;;13.12;100.00
14204;BME280;7185;51.854;6.622;2023-02-17T10:18:56;101471.84;;;13.11;100.00
14204;BME280;7185;51.854;6.622;2023-02-17T10:21:32;101483.38;;;13.02;100.00
14204;BME280;7185;51.854;6.622;2023-02-17T10:24:07;101466.59;;;13.07;100.00
14204;BME280;7185;51.854;6.622;2023-02-17T10:26:50;101471.88;;;13.07;100.00
14204;BME280;7185;51.854;6.622;2023-02-17T10:29:33;101474.84;;;12.86;100.00
14204;BME280;7185;51.854;6.622;2023-02-17T10:32:28;101446.69;;;12.91;100.00
14204;BME280;7185;51.854;6.622;2023-02-17T10:35:12;101461.34;;;13.07;100.00
14204;BME280;7185;51.854;6.622;2023-02-17T10:37:45;101454.47;;;13.00;100.00
14204;BME280;7185;51.854;6.622;2023-02-17T10:40:20;101472.13;;;12.92;100.00
14204;BME280;7185;51.854;6.622;2023-02-17T10:42:55;101471.81;;;13.12;100.00
14204;BME280;7185;51.854;6.622;2023-02-17T10:45:31;101471.53;;;13.32;100.00
14204;BME280;7185;51.854;6.622;2023-02-17T10:48:07;101466.28;;;13.29;100.00
14204;BME280;7185;51.854;6.622;2023-02-17T10:50:43;101477.56;;;13.37;100.00
14204;BME280;7185;51.854;6.622;2023-02-17T10:53:18;101473.78;;;13.59;100.00
14204;BME280;7185;51.854;6.622;2023-02-17T10:55:56;101492.41;;;13.45;100.00
14204;BME280;7185;51.854;6.622;2023-02-17T10:58:34;101507.34;;;13.46;100.00
14204;BME280;7185;51.854;6.622;2023-02-17T11:01:09;101503.44;;;13.70;100.00
14204;BME280;7185;51.854;6.622;2023-02-17T11:03:41;101512.59;;;13.46;100.00
14204;BME280;7185;51.854;6.622;2023-02-17T11:06:17;101508.38;;;13.32;100.00
14204;BME280;7185;51.854;6.622;2023-02-17T11:08:55;101493.41;;;13.36;100.00
14204;BME280;7185;51.854;6.622;2023-02-17T11:11:30;101501.19;;;13.47;100.00
14204;BME280;7185;51.854;6.622;2023-02-17T11:14:11;101494.06;;;13.52;100.00
14204;BME280;7185;51.854;6.622;2023-02-17T11:16:49;101501.38;;;13.31;100.00
14204;BME280;7185;51.854;6.622;2023-02-17T11:19:25;101493.22;;;13.50;100.00
14204;BME280;7185;51.854;6.622;2023-02-17T11:21:58;101492.94;;;13.68;100.00
14204;BME280;7185;51.854;6.622;2023-02-17T11:24:40;101487.25;;;13.38;100.00
14204;BME280;7185;51.854;6.622;2023-02-17T11:27:25;101487.13;;;13.48;100.00
14204;BME280;7185;51.854;6.622;2023-02-17T11:30:06;101475.03;;;13.31;100.00
14204;BME280;7185;51.854;6.622;2023-02-17T11:32:39;101469.78;;;13.31;100.00
14204;BME280;7185;51.854;6.622;2023-02-17T11:35:21;101480.03;;;13.50;100.00
14204;BME280;7185;51.854;6.622;2023-02-17T11:38:00;101484.59;;;13.42;100.00
14204;BME280;7185;51.854;6.622;2023-02-17T11:40:32;101466.03;;;13.48;100.00
14204;BME280;7185;51.854;6.622;2023-02-17T11:43:04;101467.44;;;13.70;100.00
14204;BME280;7185;51.854;6.622;2023-02-17T11:45:40;101469.03;;;13.79;100.00
14204;BME280;7185;51.854;6.622;2023-02-17T11:48:34;101464.91;;;13.63;100.00
14204;BME280;7185;51.854;6.622;2023-02-17T11:51:13;101457.78;;;13.69;100.00
14204;BME280;7185;51.854;6.622;2023-02-17T11:53:58;101457.59;;;13.79;100.00
14204;BME280;7185;51.854;6.622;2023-02-17T11:56:36;101467.31;;;13.75;100.00
14204;BME280;7185;51.854;6.622;2023-02-17T11:59:18;101468.31;;;13.69;100.00
14204;BME280;7185;51.854;6.622;2023-02-17T12:02:14;101453.50;;;13.62;100.00
14204;BME280;7185;51.854;6.622;2023-02-17T12:04:57;101467.50;;;13.64;100.00
14204;BME280;7185;51.854;6.622;2023-02-17T12:07:45;101478.47;;;13.39;100.00
14204;BME280;7185;51.854;6.622;2023-02-17T12:10:26;101476.78;;;13.32;100.00
14204;BME280;7185;51.854;6.622;2023-02-17T12:13:34;101492.63;;;13.29;100.00
14204;BME280;7185;51.854;6.622;2023-02-17T12:16:52;101491.72;;;13.32;100.00
14204;BME280;7185;51.854;6.622;2023-02-17T12:19:56;101501.28;;;13.37;100.00
14204;BME280;7185;51.854;6.622;2023-02-17T12:22:39;101486.28;;;13.44;100.00
14204;BME280;7185;51.854;6.622;2023-02-17T12:25:23;101480.31;;;13.31;100.00
14204;BME280;7185;51.854;6.622;2023-02-17T12:28:08;101479.47;;;13.28;100.00
14204;BME280;7185;51.854;6.622;2023-02-17T12:30:58;101475.03;;;13.31;100.00
14204;BME280;7185;51.854;6.622;2023-02-17T12:33:44;101476.91;;;13.23;100.00
14204;BME280;7185;51.854;6.622;2023-02-17T12:36:26;101486.47;;;13.30;100.00
14204;BME280;7185;51.854;6.622;2023-02-17T12:39:12;101482.25;;;13.20;100.00
14204;BME280;7185;51.854;6.622;2023-02-17T12:41:48;101495.19;;;13.34;100.00
14204;BME280;7185;51.854;6.622;2023-02-17T12:44:24;101497.84;;;13.32;100.00
14204;BME280;7185;51.854;6.622;2023-02-17T12:47:01;101487.94;;;13.51;100.00
14204;BME280;7185;51.854;6.622;2023-02-17T12:49:40;101487.06;;;13.51;100.00
14204;BME280;7185;51.854;6.622;2023-02-17T12:52:18;101487.00;;;13.54;100.00
14204;BME280;7185;51.854;6.622;2023-02-17T12:54:55;101495.97;;;13.42;100.00
14204;BME280;7185;51.854;6.622;2023-02-17T12:57:39;101503.03;;;13.42;100.00
14204;BME280;7185;51.854;6.622;2023-02-17T13:00:20;101502.03;;;13.49;100.00
14204;BME280;7185;51.854;6.622;2023-02-17T13:02:58;101511.81;;;13.41;100.00
14204;BME280;7185;51.854;6.622;2023-02-17T13:05:37;101519.06;;;13.23;100.00
14204;BME280;7185;51.854;6.622;2023-02-17T13:08:15;101507.38;;;13.44;100.00
14204;BME280;7185;51.854;6.622;2023-02-17T13:10:59;101528.56;;;13.33;100.00
14204;BME280;7185;51.854;6.622;2023-02-17T13:13:32;101531.25;;;13.30;100.00
14204;BME280;7185;51.854;6.622;2023-02-17T13:16:06;101544.34;;;13.38;100.00
14204;BME280;7185;51.854;6.622;2023-02-17T13:18:41;101558.56;;;13.25;100.00
14204;BME280;7185;51.854;6.622;2023-02-17T13:21:24;101576.22;;;13.16;100.00
14204;BME280;7185;51.854;6.622;2023-02-17T13:24:01;101552.50;;;13.18;100.00
14204;BME280;7185;51.854;6.622;2023-02-17T13:26:34;101552.50;;;13.18;100.00
14204;BME280;7185;51.854;6.622;2023-02-17T13:29:31;101565.03;;;13.00;100.00
14204;BME280;7185;51.854;6.622;2023-02-17T13:32:05;101582.53;;;13.01;100.00
14204;BME280;7185;51.854;6.622;2023-02-17T13:34:39;101574.78;;;12.92;100.00
14204;BME280;7185;51.854;6.622;2023-02-17T13:37:38;101574.47;;;13.15;100.00